메인 페이지
METAR-TAF:

METAR-TAF

공항 :

Garner Field

유밸디, 텍사스, 미국

위도: 29-12-40N, 경도: 099-44-36W, 고도: 287m

현재 날씨관측

예보는 27분 전, 13:35시(UTC)에 발표되었습니다.
7kt
온도 26°C
습도 100%
기압 1015 hPa
시정: 16.1km
고도 1000ft 상공 구름 보통
고도 5500ft 상공 구름 많음

METAR: KUVA 131335Z AUTO 10007KT 10SM SCT010 BKN055 26/26 A2998 RMK AO2 T02640264

시각: 09:02 (14:02 UTC)


TAF: 누락

4,000개 이상의 공항 관측 자료 및 예보 (METAR 및 TAF 보고).

지도상에서 검색 가능한 기상관측소가 노란 점과 빨간 점으로 표시되어 있습니다.

기상관측소 명을 보려면 표시 위로 마우스를 이동하세요.

날씨 관측과 예보를 보려면 클릭하세요.

지도 변경 : 확대하려면 엑스 표시가 있는 녹색 버튼, 축소하려면 빼기 표시가 있는 녹색 버튼, 다음 페이지의 지도를 보려면 녹색 화살표를 클릭하세요.


METAR-TAF: